Terminal Aerodrome Forecast
Issued by NWS Grand Forks, ND

Home | Current Version | Previous Version | Text Only | Print | Product List | Glossary Off
Versions: 1 2 3 4 5 6 7 8 9 10 11 12 13 14 15 16 17

860
FTUS43 KFGF 151203 AAA
TAFFAR
TAF AMD
KFAR 151203Z 1512/1612 34020G30KT 2SM BLSN OVC015
      TEMPO 1512/1514 1/2SM -SN BLSN OVC009
     FM152200 34015G24KT P6SM BKN020
     FM160100 34010KT P6SM BKN250=

USA.gov is the U.S. government's official web portal to all federal, state and local government web resources and services.